Time;durP1;ratioP1;P1;durP2;ratioP2;P2;SDS_P1;SDS_P2;PMS_P1;PMS_P2;Temp;Humidity;BMP_temperature;BMP_pressure;BME280_temperature;BME280_humidity;BME280_pressure;Samples;Min_cycle;Max_cycle;Signal;HPM_P1;HPM_P2
2021/08/19 00:02:12;;;;;;;1999.90;999.90;;;;;;;16.53;93.45;95615.84;5006015;28;20199;-74
2021/08/19 00:04:41;;;;;;;1999.90;999.90;;;;;;;16.46;93.64;95622.69;5006275;28;20203;-74
2021/08/19 00:07:08;;;;;;;1999.90;999.90;;;;;;;16.39;93.50;95615.38;4995048;28;20195;-73
2021/08/19 00:09:37;;;;;;;1999.90;999.90;;;;;;;16.33;93.93;95620.06;4986397;28;20214;-74
2021/08/19 00:12:07;;;;;;;1999.90;999.90;;;;;;;16.27;94.15;95613.50;4986455;28;20293;-75
2021/08/19 00:14:35;;;;;;;1999.90;999.90;;;;;;;16.16;94.86;95622.88;4986730;28;20188;-73
2021/08/19 00:17:03;;;;;;;1999.90;999.90;;;;;;;16.22;94.57;95618.97;4986406;28;20770;-74
2021/08/19 00:19:30;;;;;;;1999.90;999.90;;;;;;;16.11;94.77;95625.72;4986293;28;20206;-74
2021/08/19 00:21:58;;;;;;;1999.90;999.90;;;;;;;16.16;94.67;95617.63;4986240;28;20195;-74
2021/08/19 00:24:25;;;;;;;1999.90;999.90;;;;;;;16.11;94.43;95614.44;4986386;28;20214;-73
2021/08/19 00:26:52;;;;;;;1999.90;999.90;;;;;;;15.98;95.19;95623.38;4986382;28;20265;-73
2021/08/19 00:29:19;;;;;;;1999.90;999.90;;;;;;;15.95;95.21;95619.53;4987928;28;20256;-74
2021/08/19 00:31:46;;;;;;;1999.90;999.90;;;;;;;15.91;95.17;95626.53;4989633;28;20223;-73
2021/08/19 00:34:14;;;;;;;1999.90;999.90;;;;;;;15.75;95.04;95620.34;4989596;28;20203;-73
2021/08/19 00:36:41;;;;;;;1999.90;999.90;;;;;;;15.82;95.00;95625.84;4989722;28;20692;-73
2021/08/19 00:39:09;;;;;;;1999.90;999.90;;;;;;;15.78;94.68;95628.34;4989499;28;20710;-73
2021/08/19 00:41:37;;;;;;;1999.90;999.90;;;;;;;15.65;94.99;95632.00;4989631;28;20199;-73
2021/08/19 00:44:05;;;;;;;1999.90;999.90;;;;;;;15.52;95.49;95640.91;4989560;28;20551;-72
2021/08/19 00:46:35;;;;;;;1999.90;999.90;;;;;;;15.46;95.92;95624.59;4989354;28;20206;-73
2021/08/19 00:49:04;;;;;;;1999.90;999.90;;;;;;;15.28;96.01;95625.81;5001889;28;20237;-74
2021/08/19 00:51:35;;;;;;;1999.90;999.90;;;;;;;15.19;96.43;95626.97;5091883;28;20580;-74
2021/08/19 00:54:02;;;;;;;1999.90;999.90;;;;;;;15.26;96.26;95619.34;5092101;28;20188;-73
2021/08/19 00:56:31;;;;;;;1999.90;999.90;;;;;;;15.09;96.74;95625.47;5092263;28;20257;-73
2021/08/19 00:58:58;;;;;;;1999.90;999.90;;;;;;;15.13;97.12;95629.00;5043535;28;20210;-72
2021/08/19 01:01:25;;;;;;;1999.90;999.90;;;;;;;15.08;97.15;95631.78;5008856;28;20226;-72
2021/08/19 01:03:54;;;;;;;1999.90;999.90;;;;;;;15.18;96.46;95626.19;5009057;28;20199;-72
2021/08/19 01:06:21;;;;;;;1999.90;999.90;;;;;;;15.06;97.20;95623.47;5008816;28;20203;-72
2021/08/19 01:08:48;;;;;;;1999.90;999.90;;;;;;;15.03;97.30;95626.75;5008611;28;20232;-72
2021/08/19 01:11:16;;;;;;;1999.90;999.90;;;;;;;15.00;97.76;95624.75;5008772;28;20474;-72
2021/08/19 01:13:45;;;;;;;1999.90;999.90;;;;;;;14.94;98.01;95626.78;5009255;28;20230;-72
2021/08/19 01:16:12;;;;;;;1999.90;999.90;;;;;;;14.91;97.87;95616.97;5008526;28;20491;-72
2021/08/19 01:18:40;;;;;;;1999.90;999.90;;;;;;;14.93;97.51;95614.03;5008771;28;20615;-72
2021/08/19 01:21:08;;;;;;;1999.90;999.90;;;;;;;14.89;97.76;95615.75;5008381;28;20201;-73
2021/08/19 01:23:35;;;;;;;1999.90;999.90;;;;;;;14.86;97.84;95621.59;5008342;28;20203;-73
2021/08/19 01:26:07;;;;;;;1999.90;999.90;;;;;;;14.87;97.68;95621.28;5008284;28;20207;-73
2021/08/19 01:28:36;;;;;;;1999.90;999.90;;;;;;;14.86;97.12;95626.84;5008761;28;20273;-75
2021/08/19 01:31:03;;;;;;;1999.90;999.90;;;;;;;14.85;96.98;95620.84;5008607;28;20303;-74
2021/08/19 01:33:30;;;;;;;1999.90;999.90;;;;;;;14.85;96.43;95617.44;5008477;28;20255;-75
2021/08/19 01:35:57;;;;;;;1999.90;999.90;;;;;;;14.79;96.29;95618.75;5008449;28;20207;-74
2021/08/19 01:38:31;;;;;;;1999.90;999.90;;;;;;;14.73;96.60;95617.38;5008194;28;20209;-75
2021/08/19 01:40:58;;;;;;;1999.90;999.90;;;;;;;14.78;96.24;95617.97;5007187;28;20231;-75
2021/08/19 01:43:27;;;;;;;1999.90;999.90;;;;;;;14.78;95.77;95627.66;5008184;28;20199;-76
2021/08/19 01:45:57;;;;;;;1999.90;999.90;;;;;;;14.74;95.54;95616.31;5008308;28;20229;-69
2021/08/19 01:48:24;;;;;;;1999.90;999.90;;;;;;;14.72;96.04;95626.31;5008178;28;20202;-69
2021/08/19 01:50:51;;;;;;;1999.90;999.90;;;;;;;14.65;96.39;95617.09;4990703;28;20223;-70
2021/08/19 01:53:18;;;;;;;1999.90;999.90;;;;;;;14.57;96.79;95620.53;4988669;28;20264;-69
2021/08/19 01:55:45;;;;;;;1999.90;999.90;;;;;;;14.53;96.31;95616.25;4988409;28;20203;-68
2021/08/19 01:58:13;;;;;;;1999.90;999.90;;;;;;;14.61;96.48;95618.03;4993479;28;20195;-67
2021/08/19 02:00:40;;;;;;;1999.90;999.90;;;;;;;14.60;95.98;95617.28;5002923;28;20255;-67
2021/08/19 02:03:09;;;;;;;1999.90;999.90;;;;;;;14.60;95.39;95612.03;4983630;28;20199;-73
2021/08/19 02:05:38;;;;;;;1999.90;999.90;;;;;;;14.58;95.38;95611.59;4989648;28;20210;-73
2021/08/19 02:08:06;;;;;;;1999.90;999.90;;;;;;;14.50;95.67;95617.63;4987522;28;20199;-73
2021/08/19 02:10:34;;;;;;;1999.90;999.90;;;;;;;14.16;97.33;95618.50;4983978;28;20268;-72
2021/08/19 02:13:01;;;;;;;1999.90;999.90;;;;;;;14.17;97.24;95624.50;4976827;28;20215;-73
2021/08/19 02:15:28;;;;;;;1999.90;999.90;;;;;;;14.21;97.36;95620.94;4985250;28;20203;-73
2021/08/19 02:17:55;;;;;;;1999.90;999.90;;;;;;;14.30;97.13;95622.75;4986803;28;20200;-74
2021/08/19 02:20:25;;;;;;;1999.90;999.90;;;;;;;14.07;97.77;95617.00;4991035;28;20203;-74
2021/08/19 02:22:52;;;;;;;1999.90;999.90;;;;;;;13.91;97.41;95621.16;4972658;28;20208;-73
2021/08/19 02:25:19;;;;;;;1999.90;999.90;;;;;;;13.70;98.39;95615.81;4976061;28;20559;-74
2021/08/19 02:27:46;;;;;;;1999.90;999.90;;;;;;;13.71;98.58;95618.13;4977873;28;20200;-74
2021/08/19 02:30:13;;;;;;;1999.90;999.90;;;;;;;13.83;98.31;95620.13;4985934;28;20222;-73
2021/08/19 02:32:41;;;;;;;1999.90;999.90;;;;;;;13.92;97.85;95618.25;4980617;28;20244;-75
2021/08/19 02:35:09;;;;;;;1999.90;999.90;;;;;;;13.94;98.38;95615.34;4986783;28;20204;-74
2021/08/19 02:37:38;;;;;;;1999.90;999.90;;;;;;;13.88;98.42;95621.78;4973738;28;20763;-75
2021/08/19 02:40:07;;;;;;;1999.90;999.90;;;;;;;13.91;97.89;95621.94;4986913;28;20231;-73
2021/08/19 02:42:34;;;;;;;1999.90;999.90;;;;;;;13.94;97.79;95617.94;4983715;28;20200;-73
2021/08/19 02:45:01;;;;;;;1999.90;999.90;;;;;;;13.94;97.77;95620.56;4978277;28;20207;-72
2021/08/19 02:47:28;;;;;;;1999.90;999.90;;;;;;;13.88;97.55;95627.03;4985413;28;20265;-75
2021/08/19 02:49:55;;;;;;;1999.90;999.90;;;;;;;13.91;97.61;95632.38;4982731;28;20273;-75
2021/08/19 02:52:24;;;;;;;1999.90;999.90;;;;;;;13.86;97.47;95634.38;4983004;28;20245;-74
2021/08/19 02:54:52;;;;;;;1999.90;999.90;;;;;;;13.81;97.89;95624.88;4983681;28;20211;-74
2021/08/19 02:57:19;;;;;;;1999.90;999.90;;;;;;;13.78;97.94;95625.50;4983234;28;20252;-72
2021/08/19 02:59:46;;;;;;;1999.90;999.90;;;;;;;13.75;98.04;95629.50;4990937;28;20671;-71
2021/08/19 03:02:13;;;;;;;1999.90;999.90;;;;;;;13.74;98.26;95633.19;4983289;28;20612;-72
2021/08/19 03:04:40;;;;;;;1999.90;999.90;;;;;;;13.74;98.22;95637.66;4984583;28;20633;-72
2021/08/19 03:07:09;;;;;;;1999.90;999.90;;;;;;;13.70;98.11;95637.47;4980327;28;20740;-72
2021/08/19 03:09:37;;;;;;;1999.90;999.90;;;;;;;13.61;98.92;95641.94;4979451;28;20254;-71
2021/08/19 03:12:06;;;;;;;1999.90;999.90;;;;;;;13.64;99.27;95643.19;4979653;28;20235;-72
2021/08/19 03:14:34;;;;;;;1999.90;999.90;;;;;;;13.72;98.66;95645.00;4978135;28;20212;-73
2021/08/19 03:17:01;;;;;;;1999.90;999.90;;;;;;;13.76;97.92;95646.69;4986636;28;20203;-72
2021/08/19 03:19:28;;;;;;;1999.90;999.90;;;;;;;13.73;97.74;95646.56;4978245;28;20285;-71
2021/08/19 03:21:55;;;;;;;1999.90;999.90;;;;;;;13.64;97.79;95641.34;4980748;28;20196;-74
2021/08/19 03:24:22;;;;;;;1999.90;999.90;;;;;;;13.63;97.50;95641.66;4990266;28;20295;-71
2021/08/19 03:26:49;;;;;;;1999.90;999.90;;;;;;;13.56;97.93;95647.31;4988343;28;20667;-73
2021/08/19 03:29:18;;;;;;;1999.90;999.90;;;;;;;13.55;98.18;95640.56;4986866;28;20207;-72
2021/08/19 03:31:45;;;;;;;1999.90;999.90;;;;;;;13.42;98.20;95646.72;4986507;28;20317;-69
2021/08/19 03:34:12;;;;;;;1999.90;999.90;;;;;;;13.39;98.49;95657.78;4986467;28;20268;-71
2021/08/19 03:36:39;;;;;;;1999.90;999.90;;;;;;;13.49;98.27;95654.88;4986104;28;20210;-72
2021/08/19 03:39:06;;;;;;;1999.90;999.90;;;;;;;13.41;98.50;95655.63;4985801;28;20648;-71
2021/08/19 03:41:33;;;;;;;1999.90;999.90;;;;;;;13.41;97.97;95660.84;4986375;28;20252;-72
2021/08/19 03:44:01;;;;;;;1999.90;999.90;;;;;;;13.34;97.58;95665.75;4986255;28;20203;-73
2021/08/19 03:46:29;;;;;;;1999.90;999.90;;;;;;;13.35;98.22;95662.06;4984417;28;20727;-75
2021/08/19 03:48:59;;;;;;;1999.90;999.90;;;;;;;13.34;97.73;95668.38;4979101;28;20237;-74
2021/08/19 03:51:27;;;;;;;1999.90;999.90;;;;;;;13.31;97.67;95661.13;4981860;28;20262;-73
2021/08/19 03:53:55;;;;;;;1999.90;999.90;;;;;;;13.30;97.36;95665.59;4976372;28;20204;-73
2021/08/19 03:56:22;;;;;;;1999.90;999.90;;;;;;;13.32;97.04;95666.06;4977314;28;20217;-70
2021/08/19 03:58:49;;;;;;;1999.90;999.90;;;;;;;13.28;98.09;95677.41;4976603;28;20233;-73
2021/08/19 04:01:16;;;;;;;1999.90;999.90;;;;;;;13.19;99.11;95668.81;4980731;28;20191;-74
2021/08/19 04:03:46;;;;;;;1999.90;999.90;;;;;;;13.28;99.06;95677.41;4986604;28;20210;-73
2021/08/19 04:06:13;;;;;;;1999.90;999.90;;;;;;;13.29;99.86;95678.97;4988268;28;20302;-72
2021/08/19 04:08:40;;;;;;;1999.90;999.90;;;;;;;13.39;100.00;95675.28;4989437;28;20210;-72
2021/08/19 04:11:07;;;;;;;1999.90;999.90;;;;;;;13.48;99.95;95679.44;4988185;28;20226;-72
2021/08/19 04:13:34;;;;;;;1999.90;999.90;;;;;;;13.55;99.61;95682.34;4987184;28;20199;-71
2021/08/19 04:16:01;;;;;;;1999.90;999.90;;;;;;;13.91;99.06;95679.41;4988457;28;20585;-72
2021/08/19 04:18:28;;;;;;;1999.90;999.90;;;;;;;14.28;96.86;95685.81;4988595;28;20230;-72
2021/08/19 04:20:57;;;;;;;1999.90;999.90;;;;;;;14.60;94.98;95687.88;4981692;28;20208;-72
2021/08/19 04:23:24;;;;;;;1999.90;999.90;;;;;;;14.92;92.40;95691.00;4969748;28;20208;-72
2021/08/19 04:25:51;;;;;;;1999.90;999.90;;;;;;;14.87;91.34;95691.94;4970531;28;20261;-73
2021/08/19 04:28:18;;;;;;;1999.90;999.90;;;;;;;15.26;89.93;95696.03;4970350;28;20211;-73
2021/08/19 04:30:45;;;;;;;1999.90;999.90;;;;;;;15.79;88.00;95694.63;4970454;28;20235;-72
2021/08/19 04:33:12;;;;;;;1999.90;999.90;;;;;;;16.16;86.51;95691.06;4970316;28;20591;-72
2021/08/19 04:35:41;;;;;;;1999.90;999.90;;;;;;;16.31;85.70;95693.06;4970077;28;20676;-72
2021/08/19 04:38:10;;;;;;;1999.90;999.90;;;;;;;16.64;84.36;95697.50;4969854;28;20200;-73
2021/08/19 04:40:37;;;;;;;1999.90;999.90;;;;;;;17.04;83.15;95695.03;4970298;28;20211;-71
2021/08/19 04:43:04;;;;;;;1999.90;999.90;;;;;;;17.40;80.90;95697.63;4973137;28;20260;-73
2021/08/19 04:45:31;;;;;;;1999.90;999.90;;;;;;;17.20;80.51;95701.91;4989698;28;20203;-70
2021/08/19 04:47:58;;;;;;;1999.90;999.90;;;;;;;17.50;79.80;95699.78;4989176;28;20253;-72
2021/08/19 04:50:25;;;;;;;1999.90;999.90;;;;;;;17.83;77.80;95702.25;4989173;28;20239;-72
2021/08/19 04:52:52;;;;;;;1999.90;999.90;;;;;;;18.04;77.05;95702.81;4989742;28;20238;-67
2021/08/19 04:55:21;;;;;;;1999.90;999.90;;;;;;;18.18;76.50;95702.44;4989577;28;20207;-73
2021/08/19 04:57:48;;;;;;;1999.90;999.90;;;;;;;17.96;77.19;95710.88;4991345;28;20230;-73
2021/08/19 05:00:15;;;;;;;1999.90;999.90;;;;;;;17.96;77.96;95697.72;5009034;28;20259;-72
2021/08/19 05:02:42;;;;;;;1999.90;999.90;;;;;;;17.98;78.13;95701.53;5008688;28;20206;-74
2021/08/19 05:05:10;;;;;;;1999.90;999.90;;;;;;;17.95;78.16;95704.84;5008950;28;20280;-73
2021/08/19 05:07:37;;;;;;;1999.90;999.90;;;;;;;17.63;80.54;95703.94;5008844;28;20198;-74
2021/08/19 05:10:05;;;;;;;1999.90;999.90;;;;;;;17.30;82.01;95707.81;5008997;28;20254;-74
2021/08/19 05:12:33;;;;;;;1999.90;999.90;;;;;;;17.09;82.00;95716.56;5008548;28;20311;-73
2021/08/19 05:15:00;;;;;;;1999.90;999.90;;;;;;;17.08;83.04;95709.81;5007635;28;20203;-73
2021/08/19 05:17:27;;;;;;;1999.90;999.90;;;;;;;16.91;83.54;95711.88;5008476;28;20199;-73
2021/08/19 05:19:55;;;;;;;1999.90;999.90;;;;;;;16.71;84.42;95705.63;5008358;28;20911;-73
2021/08/19 05:22:22;;;;;;;1999.90;999.90;;;;;;;16.76;84.92;95703.56;5008576;28;20682;-74
2021/08/19 05:24:49;;;;;;;1999.90;999.90;;;;;;;16.73;85.55;95700.81;5008681;28;20607;-72
2021/08/19 05:27:16;;;;;;;1999.90;999.90;;;;;;;16.84;85.01;95715.03;5008589;28;20195;-74
2021/08/19 05:29:44;;;;;;;1999.90;999.90;;;;;;;17.02;84.07;95710.34;5008485;28;20263;-74
2021/08/19 05:32:11;;;;;;;1999.90;999.90;;;;;;;17.13;83.22;95706.19;5008017;28;20218;-74
2021/08/19 05:34:39;;;;;;;1999.90;999.90;;;;;;;17.01;85.49;95709.59;5008611;28;20203;-73
2021/08/19 05:37:06;;;;;;;1999.90;999.90;;;;;;;16.84;83.19;95704.53;5008421;28;20264;-74
2021/08/19 05:39:33;;;;;;;1999.90;999.90;;;;;;;16.78;83.21;95705.88;5008338;28;20228;-73
2021/08/19 05:42:00;;;;;;;1999.90;999.90;;;;;;;16.59;82.83;95711.63;5008118;28;20206;-74
2021/08/19 05:44:27;;;;;;;1999.90;999.90;;;;;;;16.58;82.86;95701.44;5008368;28;20210;-74
2021/08/19 05:46:55;;;;;;;1999.90;999.90;;;;;;;16.63;82.78;95715.16;5008297;28;20639;-74
2021/08/19 05:49:22;;;;;;;1999.90;999.90;;;;;;;16.74;83.03;95710.22;5002335;28;21105;-74
2021/08/19 05:51:49;;;;;;;1999.90;999.90;;;;;;;17.00;82.95;95708.03;4988671;28;20230;-74
2021/08/19 05:54:16;;;;;;;1999.90;999.90;;;;;;;17.08;81.32;95709.81;4988581;28;20252;-77
2021/08/19 05:56:45;;;;;;;1999.90;999.90;;;;;;;16.93;82.60;95707.06;4988481;28;20226;-74
2021/08/19 05:59:12;;;;;;;1999.90;999.90;;;;;;;17.18;81.61;95709.34;4988795;28;20199;-75
2021/08/19 06:01:39;;;;;;;1999.90;999.90;;;;;;;17.30;81.23;95705.94;4988293;28;20222;-75
2021/08/19 06:04:08;;;;;;;1999.90;999.90;;;;;;;17.47;78.98;95710.22;4988511;28;20709;-75
2021/08/19 06:06:35;;;;;;;1999.90;999.90;;;;;;;17.54;79.16;95715.66;4988528;28;20195;-75
2021/08/19 06:09:02;;;;;;;1999.90;999.90;;;;;;;17.78;78.77;95710.38;4988207;28;20702;-75
2021/08/19 06:11:29;;;;;;;1999.90;999.90;;;;;;;18.14;76.10;95713.97;4988283;28;20683;-75
2021/08/19 06:13:56;;;;;;;1999.90;999.90;;;;;;;18.48;72.89;95706.22;4988349;28;20203;-75
2021/08/19 06:16:23;;;;;;;1999.90;999.90;;;;;;;18.48;73.96;95702.81;4988155;28;20203;-74
2021/08/19 06:18:50;;;;;;;1999.90;999.90;;;;;;;18.63;73.42;95702.09;4988249;28;20203;-76
2021/08/19 06:21:19;;;;;;;1999.90;999.90;;;;;;;18.76;72.37;95708.84;4988384;28;20274;-74
2021/08/19 06:23:46;;;;;;;1999.90;999.90;;;;;;;18.78;73.65;95703.97;4987872;28;20200;-75
2021/08/19 06:26:13;;;;;;;1999.90;999.90;;;;;;;18.89;71.83;95706.88;4987467;28;20203;-75
2021/08/19 06:28:40;;;;;;;1999.90;999.90;;;;;;;18.97;73.63;95705.19;4987881;28;20760;-75
2021/08/19 06:31:07;;;;;;;1999.90;999.90;;;;;;;19.19;71.00;95709.81;4988060;28;20234;-75
2021/08/19 06:33:34;;;;;;;1999.90;999.90;;;;;;;19.22;70.40;95707.28;4987747;28;20230;-75
2021/08/19 06:36:01;;;;;;;1999.90;999.90;;;;;;;19.34;70.77;95706.38;4979191;28;20265;-75
2021/08/19 06:38:30;;;;;;;1999.90;999.90;;;;;;;19.54;70.47;95697.44;4987140;28;20241;-75
2021/08/19 06:40:57;;;;;;;1999.90;999.90;;;;;;;19.68;69.54;95703.00;4988059;28;20678;-75
2021/08/19 06:43:24;;;;;;;1999.90;999.90;;;;;;;20.00;66.52;95702.88;4987621;28;20679;-74
2021/08/19 06:45:51;;;;;;;1999.90;999.90;;;;;;;20.11;66.22;95688.03;4987589;28;20682;-75
2021/08/19 06:48:18;;;;;;;1999.90;999.90;;;;;;;20.05;63.50;95695.44;4987775;28;20609;-73
2021/08/19 06:50:45;;;;;;;1999.90;999.90;;;;;;;20.12;62.19;95698.22;4987339;28;20292;-75
2021/08/19 06:53:12;;;;;;;1999.90;999.90;;;;;;;20.22;62.52;95694.28;4987221;28;20291;-75
2021/08/19 06:55:41;;;;;;;1999.90;999.90;;;;;;;20.28;63.12;95689.44;4987852;28;20199;-74
2021/08/19 06:58:08;;;;;;;1999.90;999.90;;;;;;;20.14;62.99;95685.44;4987523;28;20235;-74
2021/08/19 07:00:35;;;;;;;1999.90;999.90;;;;;;;20.33;65.59;95689.94;4987539;28;20203;-74
2021/08/19 07:03:02;;;;;;;1999.90;999.90;;;;;;;20.68;65.14;95683.75;4987299;28;20195;-74
2021/08/19 07:05:29;;;;;;;1999.90;999.90;;;;;;;20.88;62.39;95682.56;4987330;28;20218;-73
2021/08/19 07:07:59;;;;;;;1999.90;999.90;;;;;;;20.87;59.53;95679.16;4987699;28;20214;-74
2021/08/19 07:10:26;;;;;;;1999.90;999.90;;;;;;;21.02;60.54;95677.50;4987228;28;20195;-73
2021/08/19 07:12:55;;;;;;;1999.90;999.90;;;;;;;21.07;57.51;95679.81;4987395;28;20679;-73
2021/08/19 07:15:22;;;;;;;1999.90;999.90;;;;;;;20.81;58.70;95679.81;4987511;28;20203;-73
2021/08/19 07:17:49;;;;;;;1999.90;999.90;;;;;;;20.98;60.02;95679.31;4987250;28;20199;-74
2021/08/19 07:20:16;;;;;;;1999.90;999.90;;;;;;;21.11;58.59;95682.53;4987434;28;20199;-74
2021/08/19 07:22:45;;;;;;;1999.90;999.90;;;;;;;21.23;55.31;95675.19;4987464;28;20211;-74
2021/08/19 07:25:13;;;;;;;1999.90;999.90;;;;;;;21.39;54.90;95681.09;4987082;28;20207;-75
2021/08/19 07:27:40;;;;;;;1999.90;999.90;;;;;;;21.75;53.63;95679.66;4987056;28;20210;-76
2021/08/19 07:30:10;;;;;;;1999.90;999.90;;;;;;;21.86;52.53;95671.84;4987075;28;20202;-75
2021/08/19 07:32:38;;;;;;;1999.90;999.90;;;;;;;21.85;55.40;95678.25;4987204;28;20207;-74
2021/08/19 07:35:06;;;;;;;1999.90;999.90;;;;;;;21.81;51.36;95680.09;4987108;28;20753;-74
2021/08/19 07:37:33;;;;;;;1999.90;999.90;;;;;;;22.01;50.16;95678.09;4987444;28;20207;-75
2021/08/19 07:40:00;;;;;;;1999.90;999.90;;;;;;;22.06;51.74;95675.88;4989686;28;20203;-75
2021/08/19 07:42:28;;;;;;;1999.90;999.90;;;;;;;22.31;49.03;95678.78;4989846;28;20199;-74
2021/08/19 07:44:55;;;;;;;1999.90;999.90;;;;;;;22.36;48.02;95678.47;4988640;28;20343;-76
2021/08/19 07:47:23;;;;;;;1999.90;999.90;;;;;;;22.02;49.49;95671.69;4985807;28;20199;-75
2021/08/19 07:49:50;;;;;;;1999.90;999.90;;;;;;;21.82;50.89;95676.31;4986805;28;20231;-74
2021/08/19 07:52:17;;;;;;;1999.90;999.90;;;;;;;22.19;49.79;95669.22;4986922;28;20230;-75
2021/08/19 07:54:44;;;;;;;1999.90;999.90;;;;;;;22.33;49.44;95669.34;4986630;28;20207;-73
2021/08/19 07:57:12;;;;;;;1999.90;999.90;;;;;;;22.51;50.72;95669.53;4986404;28;20214;-74
2021/08/19 07:59:39;;;;;;;1999.90;999.90;;;;;;;22.75;49.21;95662.94;4986645;28;20264;-75
2021/08/19 08:02:06;;;;;;;1999.90;999.90;;;;;;;22.86;48.91;95663.78;4986517;28;20223;-74
2021/08/19 08:04:35;;;;;;;1999.90;999.90;;;;;;;22.87;47.86;95664.50;4986750;28;20226;-74
2021/08/19 08:07:02;;;;;;;1999.90;999.90;;;;;;;22.88;48.11;95661.50;4986880;28;20199;-73
2021/08/19 08:09:29;;;;;;;1999.90;999.90;;;;;;;22.93;47.74;95657.75;4986770;28;20203;-73
2021/08/19 08:11:56;;;;;;;1999.90;999.90;;;;;;;22.89;48.34;95657.72;4986707;28;20620;-74
2021/08/19 08:14:23;;;;;;;1999.90;999.90;;;;;;;22.91;47.33;95652.06;4986759;28;20320;-74
2021/08/19 08:16:50;;;;;;;1999.90;999.90;;;;;;;23.11;47.29;95654.09;4986826;28;20215;-74
2021/08/19 08:19:17;;;;;;;1999.90;999.90;;;;;;;23.47;47.34;95655.06;4986222;28;20199;-74
2021/08/19 08:21:46;;;;;;;1999.90;999.90;;;;;;;23.59;44.05;95646.81;4986394;28;20248;-73
2021/08/19 08:24:13;;;;;;;1999.90;999.90;;;;;;;23.50;44.81;95642.97;4986313;28;20207;-73
2021/08/19 08:26:41;;;;;;;1999.90;999.90;;;;;;;23.59;44.96;95648.69;4986215;28;20207;-73
2021/08/19 08:29:08;;;;;;;1999.90;999.90;;;;;;;23.94;44.66;95643.53;4986272;28;20203;-73
2021/08/19 08:31:35;;;;;;;1999.90;999.90;;;;;;;23.98;42.55;95641.63;4986313;28;20203;-73
2021/08/19 08:34:02;;;;;;;1999.90;999.90;;;;;;;24.32;42.79;95644.00;4986345;28;20227;-73
2021/08/19 08:36:29;;;;;;;1999.90;999.90;;;;;;;24.06;41.44;95644.31;4986156;28;20203;-74
2021/08/19 08:38:57;;;;;;;1999.90;999.90;;;;;;;24.16;43.38;95631.03;4986028;28;20236;-74
2021/08/19 08:41:25;;;;;;;1999.90;999.90;;;;;;;24.18;41.78;95628.81;4986489;28;20203;-73
2021/08/19 08:43:53;;;;;;;1999.90;999.90;;;;;;;24.34;41.98;95631.09;4986351;28;20200;-73
2021/08/19 08:46:22;;;;;;;1999.90;999.90;;;;;;;24.38;43.03;95622.00;4986112;28;20205;-73
2021/08/19 08:48:55;;;;;;;1999.90;999.90;;;;;;;24.35;42.34;95628.09;4985851;28;20241;-72
2021/08/19 08:51:22;;;;;;;1999.90;999.90;;;;;;;24.54;44.65;95608.34;4989318;28;20188;-73
2021/08/19 08:53:50;;;;;;;1999.90;999.90;;;;;;;24.71;43.77;95618.19;4989244;28;20276;-72
2021/08/19 08:56:18;;;;;;;1999.90;999.90;;;;;;;24.66;42.46;95613.25;4989479;28;20272;-73
2021/08/19 08:58:45;;;;;;;1999.90;999.90;;;;;;;24.95;42.68;95616.69;4989623;28;20195;-73
2021/08/19 09:01:12;;;;;;;1999.90;999.90;;;;;;;24.81;41.08;95606.03;4989087;28;20588;-73
2021/08/19 09:03:39;;;;;;;1999.90;999.90;;;;;;;24.79;40.26;95613.66;4988784;28;20753;-72
2021/08/19 09:06:07;;;;;;;1999.90;999.90;;;;;;;24.68;41.29;95599.59;4988864;28;20203;-72
2021/08/19 09:08:34;;;;;;;1999.90;999.90;;;;;;;24.66;40.48;95599.97;4988819;28;20316;-72
2021/08/19 09:11:03;;;;;;;1999.90;999.90;;;;;;;24.85;41.48;95596.94;4989107;28;20214;-72
2021/08/19 09:13:32;;;;;;;1999.90;999.90;;;;;;;24.81;39.61;95598.81;4988773;28;20234;-72
2021/08/19 09:16:14;;;;;;;1999.90;999.90;;;;;;;24.76;40.79;95598.44;4988868;28;20260;-73
2021/08/19 09:18:42;;;;;;;1999.90;999.90;;;;;;;24.93;41.09;95594.28;4988829;28;20195;-72
2021/08/19 09:21:18;;;;;;;1999.90;999.90;;;;;;;25.23;40.34;95591.94;4988707;28;20623;-73
2021/08/19 09:23:45;;;;;;;1999.90;999.90;;;;;;;25.19;40.71;95593.84;4989099;28;20190;-73
2021/08/19 09:26:12;;;;;;;1999.90;999.90;;;;;;;25.32;42.16;95586.97;4988913;28;20256;-73
2021/08/19 09:28:41;;;;;;;1999.90;999.90;;;;;;;25.62;40.19;95587.25;4988776;28;20203;-73
2021/08/19 09:31:09;;;;;;;1999.90;999.90;;;;;;;25.77;40.35;95579.19;4988740;28;20250;-73
2021/08/19 09:33:39;;;;;;;1999.90;999.90;;;;;;;25.75;38.99;95584.16;4988623;28;20230;-74
2021/08/19 09:36:07;;;;;;;1999.90;999.90;;;;;;;25.49;38.38;95582.72;4988973;28;20199;-72
2021/08/19 09:38:40;;;;;;;1999.90;999.90;;;;;;;25.61;38.24;95572.41;4988622;28;20198;-72
2021/08/19 09:41:12;;;;;;;1999.90;999.90;;;;;;;25.46;40.89;95570.94;4988586;28;20207;-71
2021/08/19 09:43:42;;;;;;;1999.90;999.90;;;;;;;25.78;40.64;95568.16;4988815;28;20923;-72
2021/08/19 09:46:10;;;;;;;1999.90;999.90;;;;;;;25.98;37.03;95561.19;4988539;28;20198;-72
2021/08/19 09:48:38;;;;;;;1999.90;999.90;;;;;;;25.71;37.00;95560.94;4988534;28;20203;-74
2021/08/19 09:51:17;;;;;;;1999.90;999.90;;;;;;;25.88;38.61;95554.00;4988699;28;20199;-73
2021/08/19 09:53:45;;;;;;;1999.90;999.90;;;;;;;26.02;39.16;95545.16;4988671;28;20227;-73
2021/08/19 09:56:14;;;;;;;1999.90;999.90;;;;;;;26.21;37.70;95543.88;4988719;28;20582;-74
2021/08/19 09:58:42;;;;;;;1999.90;999.90;;;;;;;26.25;38.17;95540.06;4988064;28;20210;-73
2021/08/19 10:01:09;;;;;;;1999.90;999.90;;;;;;;26.05;36.98;95539.06;4987782;28;20202;-73
2021/08/19 10:03:38;;;;;;;1999.90;999.90;;;;;;;25.99;38.54;95537.97;4988255;28;20253;-73
2021/08/19 10:06:05;;;;;;;1999.90;999.90;;;;;;;26.13;37.87;95535.19;4988273;28;20229;-73
2021/08/19 10:08:34;;;;;;;1999.90;999.90;;;;;;;26.34;37.76;95529.75;4988288;28;20249;-73
2021/08/19 10:11:03;;;;;;;1999.90;999.90;;;;;;;26.58;37.51;95538.66;4988320;28;20207;-72
2021/08/19 10:13:32;;;;;;;1999.90;999.90;;;;;;;26.71;34.40;95530.91;4988454;28;20720;-72
2021/08/19 10:16:01;;;;;;;1999.90;999.90;;;;;;;26.66;33.55;95532.09;4988132;28;20733;-72
2021/08/19 10:18:32;;;;;;;1999.90;999.90;;;;;;;26.47;35.20;95527.34;4988406;28;20283;-72
2021/08/19 10:21:09;;;;;;;1999.90;999.90;;;;;;;26.88;34.94;95528.09;4988520;28;20211;-72
2021/08/19 10:23:39;;;;;;;1999.90;999.90;;;;;;;27.01;34.38;95530.25;4988395;28;20215;-72
2021/08/19 10:26:09;;;;;;;1999.90;999.90;;;;;;;27.16;34.52;95521.69;4988099;28;20199;-72
2021/08/19 10:28:50;;;;;;;1999.90;999.90;;;;;;;27.06;33.10;95527.13;4987989;28;20571;-72
2021/08/19 10:31:45;;;;;;;1999.90;999.90;;;;;;;26.94;33.07;95520.44;4988253;28;20195;-72
2021/08/19 10:34:13;;;;;;;1999.90;999.90;;;;;;;27.26;34.97;95515.47;4987607;28;20211;-73
2021/08/19 10:36:55;;;;;;;1999.90;999.90;;;;;;;27.24;33.81;95509.78;4987972;28;20260;-74
2021/08/19 10:39:34;;;;;;;1999.90;999.90;;;;;;;26.85;34.59;95512.13;4987944;28;20321;-74
2021/08/19 10:42:01;;;;;;;1999.90;999.90;;;;;;;27.16;34.03;95507.59;4988099;28;20219;-73
2021/08/19 10:44:33;;;;;;;1999.90;999.90;;;;;;;27.32;35.51;95505.09;4987611;28;20223;-73
2021/08/19 10:47:02;;;;;;;1999.90;999.90;;;;;;;27.03;33.69;95504.69;4987861;28;20264;-74
2021/08/19 10:49:38;;;;;;;1999.90;999.90;;;;;;;27.27;34.85;95514.31;4987646;28;20610;-73
2021/08/19 10:52:28;;;;;;;1999.90;999.90;;;;;;;27.12;32.75;95512.97;4987470;28;20238;-74
2021/08/19 10:55:16;;;;;;;1999.90;999.90;;;;;;;27.48;32.31;95509.88;4987315;28;20262;-73
2021/08/19 10:57:47;;;;;;;1999.90;999.90;;;;;;;27.63;32.60;95505.88;4987869;28;20199;-73
2021/08/19 11:00:14;;;;;;;1999.90;999.90;;;;;;;27.94;33.75;95502.00;4987720;28;20199;-73